Time;durP1;ratioP1;P1;durP2;ratioP2;P2;SDS_P1;SDS_P2;PMS_P1;PMS_P2;Temp;Humidity;BMP_temperature;BMP_pressure;BME280_temperature;BME280_humidity;BME280_pressure;Samples;Min_cycle;Max_cycle;Signal;HPM_P1;HPM_P2
2023/08/04 00:02:24;;;;;;;;;10.00;8.00;;;;;16.84;100.00;101122.78;5062581;27;47658;-72
2023/08/04 00:04:49;;;;;;;;;10.00;7.67;;;;;16.78;100.00;101112.53;5083312;27;45524;-72
2023/08/04 00:07:14;;;;;;;;;5.67;5.67;;;;;16.81;100.00;101119.47;5061641;28;52312;-72
2023/08/04 00:09:39;;;;;;;;;5.67;5.67;;;;;16.82;100.00;101124.69;5096933;27;45543;-72
2023/08/04 00:12:05;;;;;;;;;10.33;9.33;;;;;16.80;100.00;101129.28;5077857;28;48339;-72
2023/08/04 00:14:30;;;;;;;;;6.00;6.00;;;;;16.73;100.00;101128.00;5078473;27;45337;-72
2023/08/04 00:16:55;;;;;;;;;8.00;5.67;;;;;16.77;100.00;101132.16;5090867;27;45206;-71
2023/08/04 00:19:21;;;;;;;;;5.00;5.00;;;;;16.76;100.00;101142.94;5098694;27;45245;-73
2023/08/04 00:21:46;;;;;;;;;9.00;8.00;;;;;16.68;100.00;101130.13;5080049;28;45384;-72
2023/08/04 00:24:11;;;;;;;;;7.33;7.33;;;;;16.75;100.00;101135.91;5083792;27;52556;-72
2023/08/04 00:26:37;;;;;;;;;6.00;6.00;;;;;16.72;100.00;101136.94;5082596;27;51115;-72
2023/08/04 00:29:02;;;;;;;;;5.67;5.67;;;;;16.66;100.00;101132.03;5095219;27;45323;-72
2023/08/04 00:31:28;;;;;;;;;8.00;6.33;;;;;16.60;100.00;101125.28;5080295;27;45261;-72
2023/08/04 00:33:55;;;;;;;;;9.33;7.00;;;;;16.62;100.00;101127.88;5094085;27;45204;-72
2023/08/04 00:36:20;;;;;;;;;6.33;6.00;;;;;16.61;100.00;101134.16;5080983;27;45617;-72
2023/08/04 00:38:45;;;;;;;;;6.00;6.00;;;;;16.60;100.00;101137.78;5096467;27;45716;-72
2023/08/04 00:41:11;;;;;;;;;10.00;8.00;;;;;16.59;100.00;101142.25;5073822;27;46867;-72
2023/08/04 00:43:36;;;;;;;;;9.00;6.00;;;;;16.53;100.00;101134.63;5074138;27;46025;-72
2023/08/04 00:46:01;;;;;;;;;8.00;7.00;;;;;16.57;100.00;101140.66;5089024;27;48216;-72
2023/08/04 00:48:26;;;;;;;;;9.00;8.00;;;;;16.53;100.00;101147.97;5078363;27;45599;-72
2023/08/04 00:50:52;;;;;;;;;7.00;7.00;;;;;16.54;100.00;101143.50;5079976;27;46109;-72
2023/08/04 00:53:18;;;;;;;;;8.00;7.67;;;;;16.53;100.00;101147.97;5079166;27;45515;-72
2023/08/04 00:55:43;;;;;;;;;10.67;9.00;;;;;16.41;100.00;101132.78;5092952;27;45414;-72
2023/08/04 00:58:09;;;;;;;;;8.67;6.67;;;;;16.48;100.00;101147.44;5079282;27;45585;-72
2023/08/04 01:00:34;;;;;;;;;10.00;9.67;;;;;16.47;100.00;101137.72;5062028;28;45492;-72
2023/08/04 01:03:00;;;;;;;;;10.00;8.00;;;;;16.41;100.00;101132.78;5091646;27;45376;-73
2023/08/04 01:05:34;;;;;;;;;7.00;7.00;;;;;16.42;100.00;101144.31;5089855;27;45358;-72
2023/08/04 01:08:15;;;;;;;;;8.00;8.00;;;;;16.47;100.00;101148.41;5081597;27;45656;-72
2023/08/04 01:11:11;;;;;;;;;5.00;5.00;;;;;16.44;100.00;101153.06;5091351;27;46508;-72
2023/08/04 01:13:39;;;;;;;;;8.67;8.67;;;;;16.43;100.00;101154.03;5070815;27;45348;-72
2023/08/04 01:16:06;;;;;;;;;8.00;7.00;;;;;16.37;100.00;101152.63;5093850;27;45392;-72
2023/08/04 01:18:31;;;;;;;;;9.00;9.00;;;;;16.39;100.00;101160.53;5079277;28;45409;-72
2023/08/04 01:21:04;;;;;;;;;9.00;9.00;;;;;16.33;100.00;101152.94;5072788;27;48211;-72
2023/08/04 01:23:29;;;;;;;;;10.33;8.67;;;;;16.37;100.00;101159.78;5091153;27;45435;-72
2023/08/04 01:25:54;;;;;;;;;5.00;4.00;;;;;16.35;100.00;101154.56;5098777;27;45355;-72
2023/08/04 01:28:22;;;;;;;;;9.67;8.67;;;;;16.33;100.00;101147.59;5099293;27;45560;-72
2023/08/04 01:30:50;;;;;;;;;8.33;7.00;;;;;16.33;100.00;101151.09;5067248;27;46428;-72
2023/08/04 01:33:16;;;;;;;;;11.33;8.67;;;;;16.34;100.00;101147.50;5078616;28;45461;-72
2023/08/04 01:35:42;;;;;;;;;14.00;12.00;;;;;16.34;100.00;101154.63;5064983;27;46850;-72
2023/08/04 01:38:09;;;;;;;;;6.67;6.33;;;;;16.34;100.00;101142.16;5080581;27;45274;-72
2023/08/04 01:40:35;;;;;;;;;10.00;8.33;;;;;16.35;100.00;101156.34;5070201;27;46343;-72
2023/08/04 01:43:00;;;;;;;;;10.67;10.67;;;;;16.34;100.00;101158.16;5061716;28;45428;-72
2023/08/04 01:45:25;;;;;;;;;10.33;8.00;;;;;16.32;100.00;101160.09;5059816;28;45355;-72
2023/08/04 01:47:52;;;;;;;;;7.00;5.00;;;;;16.31;100.00;101154.84;5073988;28;45557;-72
2023/08/04 01:50:17;;;;;;;;;7.00;7.00;;;;;16.29;100.00;101160.28;5065743;28;45385;-72
2023/08/04 01:52:42;;;;;;;;;12.67;11.33;;;;;16.23;100.00;101158.00;5059540;27;45267;-72
2023/08/04 01:55:08;;;;;;;;;10.33;9.33;;;;;16.30;100.00;101164.66;5060915;28;45701;-72
2023/08/04 01:57:33;;;;;;;;;8.00;8.00;;;;;16.23;100.00;101157.16;5063170;28;51491;-72
2023/08/04 01:59:59;;;;;;;;;8.00;7.33;;;;;16.25;100.00;101164.09;5062702;28;46071;-72
2023/08/04 02:02:24;;;;;;;;;7.33;7.00;;;;;16.27;100.00;101174.66;5072025;28;45465;-72
2023/08/04 02:04:50;;;;;;;;;9.00;9.00;;;;;16.21;100.00;101175.06;5062477;28;45270;-72
2023/08/04 02:07:15;;;;;;;;;11.33;6.00;;;;;16.21;100.00;101170.59;5058210;28;45324;-72
2023/08/04 02:09:41;;;;;;;;;7.00;7.00;;;;;16.13;100.00;101160.41;5058865;28;45296;-72
2023/08/04 02:12:06;;;;;;;;;8.67;8.33;;;;;16.10;100.00;101162.41;5077091;28;49613;-71
2023/08/04 02:14:33;;;;;;;;;8.00;6.67;;;;;16.17;100.00;101171.75;5066001;27;45305;-72
2023/08/04 02:16:59;;;;;;;;;8.00;7.00;;;;;16.07;100.00;101160.81;5073740;28;45523;-72
2023/08/04 02:19:24;;;;;;;;;12.33;7.00;;;;;16.12;100.00;101177.41;5071059;28;46414;-72
2023/08/04 02:21:49;;;;;;;;;10.67;9.00;;;;;16.07;100.00;101173.28;5070284;27;45491;-72
2023/08/04 02:24:15;;;;;;;;;7.00;7.00;;;;;16.08;100.00;101178.53;5059263;28;45474;-72
2023/08/04 02:26:41;;;;;;;;;7.00;6.00;;;;;16.05;100.00;101177.88;5058621;28;45527;-72
2023/08/04 02:29:06;;;;;;;;;9.67;8.67;;;;;15.98;100.00;101166.72;5076751;27;47177;-72
2023/08/04 02:31:32;;;;;;;;;8.00;7.67;;;;;15.97;100.00;101165.00;5067585;28;45438;-72
2023/08/04 02:33:59;;;;;;;;;10.00;9.00;;;;;15.87;100.00;101157.72;5060554;28;45392;-72
2023/08/04 02:36:25;;;;;;;;;7.33;7.33;;;;;15.98;100.00;101190.75;5069490;28;45515;-72
2023/08/04 02:38:50;;;;;;;;;8.00;8.00;;;;;15.91;100.00;101176.06;5076526;27;45261;-72
2023/08/04 02:41:16;;;;;;;;;9.33;8.00;;;;;15.94;100.00;101181.22;5070280;28;45389;-72
2023/08/04 02:43:41;;;;;;;;;9.00;9.00;;;;;15.92;100.00;101177.81;5073910;27;45546;-72
2023/08/04 02:46:08;;;;;;;;;10.00;9.00;;;;;15.97;100.00;101182.81;5066839;28;45281;-72
2023/08/04 02:48:34;;;;;;;;;7.00;7.00;;;;;15.94;100.00;101186.56;5068157;27;45336;-72
2023/08/04 02:51:03;;;;;;;;;9.00;9.00;;;;;15.93;100.00;101184.84;5069680;27;45405;-72
2023/08/04 02:53:30;;;;;;;;;7.00;7.00;;;;;15.91;100.00;101176.06;5066966;28;45450;-72
2023/08/04 02:55:55;;;;;;;;;9.33;8.67;;;;;15.88;100.00;101167.41;5062661;27;45299;-72
2023/08/04 02:58:22;;;;;;;;;11.00;11.00;;;;;15.84;100.00;101182.75;5072351;28;46331;-72
2023/08/04 03:00:47;;;;;;;;;12.00;11.67;;;;;15.84;100.00;101180.06;5081163;27;45502;-72
2023/08/04 03:03:13;;;;;;;;;13.33;11.00;;;;;15.85;100.00;101188.94;5075373;28;47799;-72
2023/08/04 03:05:38;;;;;;;;;10.00;8.00;;;;;15.75;100.00;101174.47;5075061;27;45359;-72
2023/08/04 03:08:03;;;;;;;;;9.33;8.33;;;;;15.86;100.00;101204.00;5066521;27;45325;-72
2023/08/04 03:10:29;;;;;;;;;8.00;8.00;;;;;15.72;100.00;101183.53;5071775;27;45352;-72
2023/08/04 03:12:54;;;;;;;;;9.00;9.00;;;;;15.72;100.00;101185.31;5064923;28;45394;-72
2023/08/04 03:15:19;;;;;;;;;11.00;9.67;;;;;15.77;100.00;101192.06;5060892;28;49274;-72
2023/08/04 03:17:45;;;;;;;;;8.00;8.00;;;;;15.82;100.00;101195.34;5060867;28;46265;-72
2023/08/04 03:20:10;;;;;;;;;9.33;9.33;;;;;15.77;100.00;101197.41;5067732;28;45419;-72
2023/08/04 03:22:35;;;;;;;;;8.00;8.00;;;;;15.81;100.00;101206.94;5075992;28;45477;-72
2023/08/04 03:25:01;;;;;;;;;8.67;7.33;;;;;15.75;100.00;101199.34;5061271;28;50018;-72
2023/08/04 03:27:27;;;;;;;;;8.00;8.00;;;;;15.77;100.00;101209.91;5059259;28;46432;-72
2023/08/04 03:29:52;;;;;;;;;9.33;9.33;;;;;15.69;100.00;101196.19;5076135;27;45241;-72
2023/08/04 03:32:18;;;;;;;;;10.00;8.67;;;;;15.79;100.00;101214.19;5063227;28;45263;-71
2023/08/04 03:34:43;;;;;;;;;8.00;7.33;;;;;15.78;100.00;101214.28;5081045;27;45269;-72
2023/08/04 03:37:08;;;;;;;;;11.00;10.00;;;;;15.75;100.00;101212.66;5069278;27;46106;-72
2023/08/04 03:39:34;;;;;;;;;10.33;9.00;;;;;15.71;100.00;101216.47;5080914;27;45332;-71
2023/08/04 03:41:59;;;;;;;;;11.33;10.67;;;;;15.80;100.00;101226.59;5075398;27;45261;-72
2023/08/04 03:44:24;;;;;;;;;11.50;11.00;;;;;15.75;100.00;101218.00;5060321;28;55613;-72
2023/08/04 03:46:50;;;;;;;;;5.67;5.67;;;;;15.79;100.00;101226.66;5067716;28;46195;-72
2023/08/04 03:49:15;;;;;;;;;14.00;12.33;;;;;15.73;100.00;101219.06;5071932;28;46366;-72
2023/08/04 03:51:40;;;;;;;;;12.00;10.33;;;;;15.72;100.00;101220.84;5065185;28;45284;-71
2023/08/04 03:54:06;;;;;;;;;10.00;10.00;;;;;15.79;100.00;101224.88;5069986;28;45544;-72
2023/08/04 03:56:31;;;;;;;;;9.00;8.67;;;;;15.85;100.00;101239.63;5076719;28;47929;-72
2023/08/04 03:58:56;;;;;;;;;5.00;5.00;;;;;15.80;100.00;101226.59;5080097;27;45541;-72
2023/08/04 04:01:22;;;;;;;;;13.00;12.67;;;;;15.90;100.00;101235.72;5064984;27;45436;-72
2023/08/04 04:03:47;;;;;;;;;12.00;10.33;;;;;15.90;100.00;101240.22;5067903;27;45428;-72
2023/08/04 04:06:13;;;;;;;;;11.67;11.00;;;;;15.84;100.00;101229.91;5075155;27;47725;-72
2023/08/04 04:08:38;;;;;;;;;12.00;12.00;;;;;15.89;100.00;101243.81;5060482;28;45405;-72
2023/08/04 04:11:04;;;;;;;;;14.33;13.00;;;;;15.95;100.00;101246.97;5073051;28;45427;-71
2023/08/04 04:13:29;;;;;;;;;14.00;11.67;;;;;16.01;100.00;101257.25;5078297;28;45367;-72
2023/08/04 04:15:54;;;;;;;;;11.33;10.33;;;;;16.03;100.00;101260.66;5064239;27;46274;-72
2023/08/04 04:18:20;;;;;;;;;10.00;10.00;;;;;15.98;100.00;101246.78;5077710;28;50278;-72
2023/08/04 04:20:45;;;;;;;;;12.00;10.67;;;;;16.02;100.00;101256.31;5071818;28;45308;-72
2023/08/04 04:23:10;;;;;;;;;12.67;12.67;;;;;16.03;100.00;101258.00;5061259;28;54934;-72
2023/08/04 04:25:36;;;;;;;;;16.00;13.00;;;;;16.05;100.00;101257.91;5066230;28;45542;-72
2023/08/04 04:28:01;;;;;;;;;13.33;12.00;;;;;15.98;100.00;101245.91;5083582;27;48819;-72
2023/08/04 04:30:26;;;;;;;;;14.00;12.00;;;;;16.09;100.00;101273.66;5072127;27;45344;-72
2023/08/04 04:32:52;;;;;;;;;11.00;10.67;;;;;15.99;100.00;101258.31;5086232;27;45618;-72
2023/08/04 04:35:17;;;;;;;;;12.00;9.67;;;;;16.13;100.00;101269.81;5079473;27;46264;-72
2023/08/04 04:37:42;;;;;;;;;11.33;11.00;;;;;16.02;100.00;101250.97;5078496;27;48967;-72
2023/08/04 04:40:08;;;;;;;;;14.67;13.00;;;;;16.12;100.00;101276.13;5075711;27;45477;-72
2023/08/04 04:42:33;;;;;;;;;12.00;12.00;;;;;16.14;100.00;101273.34;5078483;28;45261;-72
2023/08/04 04:45:00;;;;;;;;;15.33;11.00;;;;;16.09;100.00;101272.78;5080466;27;45448;-72
2023/08/04 04:47:25;;;;;;;;;12.00;12.00;;;;;16.12;100.00;101275.25;5084155;27;45389;-72
2023/08/04 04:49:50;;;;;;;;;11.00;11.00;;;;;16.10;100.00;101275.34;5093464;27;45539;-72
2023/08/04 04:52:29;;;;;;;;;14.00;13.00;;;;;16.10;100.00;101277.16;5078643;27;45707;-72
2023/08/04 04:54:55;;;;;;;;;12.33;12.33;;;;;16.17;100.00;101291.84;5092533;27;45974;-72
2023/08/04 04:57:21;;;;;;;;;12.67;11.00;;;;;16.11;100.00;101281.53;5078996;27;54842;-72
2023/08/04 04:59:46;;;;;;;;;15.67;15.67;;;;;16.17;100.00;101290.03;5062162;28;45392;-72
2023/08/04 05:02:11;;;;;;;;;16.67;12.67;;;;;16.19;100.00;101289.09;5065422;27;45326;-72
2023/08/04 05:04:37;;;;;;;;;12.67;12.67;;;;;16.20;100.00;101293.47;5097430;27;45422;-72
2023/08/04 05:07:02;;;;;;;;;15.00;12.00;;;;;16.22;100.00;101294.22;5090643;27;45268;-72
2023/08/04 05:09:27;;;;;;;;;16.33;15.33;;;;;16.20;100.00;101293.47;5063861;28;45220;-72
2023/08/04 05:11:53;;;;;;;;;15.00;13.00;;;;;16.13;100.00;101282.31;5070016;28;45490;-72
2023/08/04 05:14:18;;;;;;;;;16.00;14.00;;;;;16.25;100.00;101300.22;5093968;27;51103;-72
2023/08/04 05:16:45;;;;;;;;;14.67;14.67;;;;;16.17;100.00;101289.16;5094662;27;52559;-72
2023/08/04 05:19:10;;;;;;;;;14.67;12.67;;;;;16.08;100.00;101276.41;5081328;27;45340;-72
2023/08/04 05:21:35;;;;;;;;;15.33;13.33;;;;;16.25;100.00;101305.56;5077969;27;45501;-72
2023/08/04 05:24:01;;;;;;;;;12.00;12.00;;;;;16.27;100.00;101303.66;5084832;27;45502;-72
2023/08/04 05:26:26;;;;;;;;;14.67;13.00;;;;;16.14;100.00;101279.53;5097254;27;45310;-72
2023/08/04 05:28:51;;;;;;;;;14.33;13.67;;;;;16.23;100.00;101298.63;5086174;27;45316;-72
2023/08/04 05:31:17;;;;;;;;;14.00;12.33;;;;;16.31;100.00;101309.66;5082310;27;45357;-72
2023/08/04 05:33:42;;;;;;;;;15.00;15.00;;;;;16.30;100.00;101298.13;5079389;27;45870;-72
2023/08/04 05:36:08;;;;;;;;;17.33;16.67;;;;;16.25;100.00;101297.56;5077005;27;49674;-72
2023/08/04 05:38:34;;;;;;;;;16.00;15.33;;;;;16.27;100.00;101300.97;5087456;27;45398;-72
2023/08/04 05:41:01;;;;;;;;;18.33;14.67;;;;;16.36;100.00;101315.59;5078270;27;45416;-72
2023/08/04 05:43:27;;;;;;;;;16.33;15.33;;;;;16.37;100.00;101311.94;5089190;27;46515;-72
2023/08/04 05:45:52;;;;;;;;;14.00;14.00;;;;;16.36;100.00;101313.75;5063822;27;45268;-72
2023/08/04 05:48:17;;;;;;;;;15.33;15.00;;;;;16.31;100.00;101299.84;5086798;27;45525;-72
2023/08/04 05:50:43;;;;;;;;;13.67;13.33;;;;;16.47;100.00;101321.09;5098818;27;53019;-72
2023/08/04 05:53:09;;;;;;;;;27.67;19.00;;;;;16.49;100.00;101324.53;5104813;27;45597;-72
2023/08/04 05:55:36;;;;;;;;;19.33;18.33;;;;;16.51;100.00;101322.63;5106051;27;45328;-72
2023/08/04 05:58:01;;;;;;;;;21.67;18.00;;;;;16.57;100.00;101324.91;5098244;27;45291;-73
2023/08/04 06:00:26;;;;;;;;;23.33;23.33;;;;;16.44;100.00;101297.25;5106418;27;45519;-74
2023/08/04 06:02:52;;;;;;;;;18.00;16.67;;;;;16.56;100.00;101317.84;5105074;27;45444;-74
2023/08/04 06:05:18;;;;;;;;;20.33;18.00;;;;;16.66;100.00;101330.53;5087939;27;45431;-74
2023/08/04 06:07:43;;;;;;;;;21.50;20.00;;;;;16.67;100.00;101332.25;5082670;27;45354;-74
2023/08/04 06:10:09;;;;;;;;;20.33;18.33;;;;;16.76;100.00;101340.63;5078290;27;45378;-74
2023/08/04 06:12:35;;;;;;;;;28.33;21.00;;;;;16.78;100.00;101336.91;5103090;27;45552;-73
2023/08/04 06:15:03;;;;;;;;;13.67;13.00;;;;;16.85;100.00;101348.06;5093300;27;45304;-74
2023/08/04 06:17:28;;;;;;;;;19.00;16.00;;;;;16.77;100.00;101340.53;5084008;27;45569;-74
2023/08/04 06:19:53;;;;;;;;;22.67;18.67;;;;;16.88;100.00;101359.41;5093187;27;45447;-73
2023/08/04 06:22:19;;;;;;;;;21.00;20.00;;;;;16.86;100.00;101344.41;5084580;27;46027;-72
2023/08/04 06:24:44;;;;;;;;;13.00;13.00;;;;;16.79;100.00;101330.59;5080118;27;45463;-74
2023/08/04 06:27:09;;;;;;;;;15.67;13.67;;;;;16.97;100.00;101356.13;5083422;27;45263;-73
2023/08/04 06:29:35;;;;;;;;;14.00;13.00;;;;;17.05;100.00;101359.16;5079281;27;45445;-73
2023/08/04 06:32:01;;;;;;;;;16.67;16.67;;;;;17.06;100.00;101360.03;5111833;27;46219;-74
2023/08/04 06:34:26;;;;;;;;;17.33;14.33;;;;;17.06;100.00;101376.91;5105501;27;45985;-73
2023/08/04 06:36:52;;;;;;;;;14.67;13.00;;;;;17.11;100.00;101366.78;5075921;27;45461;-74
2023/08/04 06:39:18;;;;;;;;;17.00;14.00;;;;;17.13;100.00;101361.34;5098146;27;46350;-74
2023/08/04 06:41:43;;;;;;;;;16.67;16.67;;;;;17.23;100.00;101370.47;5099886;27;46239;-74
2023/08/04 06:44:08;;;;;;;;;19.33;17.67;;;;;17.26;100.00;101372.94;5100895;27;45457;-74
2023/08/04 06:46:34;;;;;;;;;22.67;16.67;;;;;17.29;100.00;101378.09;5098345;27;49800;-74
2023/08/04 06:48:59;;;;;;;;;19.67;17.00;;;;;17.34;100.00;101375.94;5102898;27;47545;-73
2023/08/04 06:51:24;;;;;;;;;18.67;16.67;;;;;17.40;100.00;101377.38;5091021;27;46346;-74
2023/08/04 06:53:50;;;;;;;;;17.67;16.00;;;;;17.32;100.00;101367.19;5102712;27;45297;-74
2023/08/04 06:56:15;;;;;;;;;17.00;15.67;;;;;17.34;100.00;101362.59;5094627;27;45462;-74
2023/08/04 06:58:41;;;;;;;;;18.67;17.33;;;;;17.46;100.00;101379.66;5097873;27;45454;-74
2023/08/04 07:01:07;;;;;;;;;19.33;16.67;;;;;17.43;100.00;101370.03;5077854;27;48257;-74
2023/08/04 07:03:32;;;;;;;;;17.00;15.33;;;;;17.56;100.00;101392.34;5081327;27;54219;-74
2023/08/04 07:05:58;;;;;;;;;16.00;14.33;;;;;17.60;100.00;101391.16;5078603;27;45316;-74
2023/08/04 07:08:24;;;;;;;;;16.33;16.33;;;;;17.62;100.00;101393.75;5091434;27;45602;-74
2023/08/04 07:10:49;;;;;;;;;19.00;14.33;;;;;17.57;100.00;101377.16;5086163;27;53310;-73
2023/08/04 07:13:14;;;;;;;;;15.00;13.67;;;;;17.66;100.00;101389.91;5092137;27;45367;-74
2023/08/04 07:15:40;;;;;;;;;18.33;15.67;;;;;17.67;100.00;101392.47;5086502;27;45510;-73
2023/08/04 07:18:05;;;;;;;;;17.33;16.00;;;;;17.73;100.00;101396.56;5093700;27;51863;-74
2023/08/04 07:20:31;;;;;;;;;16.00;13.33;;;;;17.80;100.00;101405.88;5088156;27;47540;-73
2023/08/04 07:22:56;;;;;;;;;17.00;14.00;;;;;17.89;100.00;101415.97;5095038;27;45452;-74
2023/08/04 07:25:22;;;;;;;;;16.00;13.67;;;;;17.88;100.00;101408.91;5097490;27;45747;-74
2023/08/04 07:27:47;;;;;;;;;13.33;13.00;;;;;17.95;100.00;101403.97;5079845;27;45629;-74
2023/08/04 07:30:13;;;;;;;;;18.67;14.00;;;;;17.95;100.00;101402.16;5076419;27;47256;-74
2023/08/04 07:32:39;;;;;;;;;16.67;15.00;;;;;18.00;100.00;101396.47;5084491;27;45505;-74
2023/08/04 07:35:05;;;;;;;;;13.67;12.00;;;;;18.18;100.00;101416.66;5068177;27;45523;-74
2023/08/04 07:37:31;;;;;;;;;14.67;13.67;;;;;18.14;100.00;101394.59;5083841;27;45637;-74
2023/08/04 07:39:56;;;;;;;;;16.67;12.33;;;;;18.29;100.00;101415.91;5062980;27;51827;-74
2023/08/04 07:42:21;;;;;;;;;13.67;11.33;;;;;18.42;100.00;101424.81;5089517;27;49260;-74
2023/08/04 07:44:46;;;;;;;;;11.33;11.33;;;;;18.44;100.00;101418.38;5081814;27;45386;-75
2023/08/04 07:47:12;;;;;;;;;12.00;12.00;;;;;18.57;100.00;101427.28;5074728;27;53909;-74
2023/08/04 07:49:37;;;;;;;;;18.33;17.00;;;;;18.59;100.00;101419.13;5097745;27;54332;-74
2023/08/04 07:52:03;;;;;;;;;12.67;12.67;;;;;18.51;100.00;101417.03;5084981;27;45427;-74
2023/08/04 07:54:28;;;;;;;;;14.00;13.00;;;;;18.61;100.00;101434.16;5100689;27;45318;-74
2023/08/04 07:56:53;;;;;;;;;10.67;10.67;;;;;18.72;100.00;101447.63;5084992;27;45473;-74
2023/08/04 07:59:19;;;;;;;;;14.67;12.00;;;;;18.78;100.00;101438.34;5062693;28;53410;-74
2023/08/04 08:01:44;;;;;;;;;13.00;12.00;;;;;18.93;100.00;101445.25;5064914;27;48050;-75
2023/08/04 08:04:09;;;;;;;;;15.67;13.33;;;;;18.99;100.00;101430.56;5080610;27;45225;-74
2023/08/04 08:06:36;;;;;;;;;15.33;14.67;;;;;19.14;100.00;101448.22;5076271;28;45290;-74
2023/08/04 08:09:02;;;;;;;;;16.67;13.67;;;;;19.17;100.00;101438.09;5078879;27;46386;-74
2023/08/04 08:11:27;;;;;;;;;13.00;9.67;;;;;19.34;100.00;101455.66;5084679;27;45848;-74
2023/08/04 08:13:53;;;;;;;;;13.67;12.67;;;;;19.45;100.00;101461.13;5067542;27;45431;-74
2023/08/04 08:16:18;;;;;;;;;16.00;12.67;;;;;19.49;100.00;101446.53;5081443;27;49919;-74
2023/08/04 08:18:43;;;;;;;;;14.00;13.33;;;;;19.61;100.00;101455.47;5071714;27;46160;-74
2023/08/04 08:21:09;;;;;;;;;14.33;13.00;;;;;19.54;100.00;101436.28;5093872;27;45425;-74
2023/08/04 08:23:36;;;;;;;;;11.00;11.00;;;;;19.62;100.00;101450.00;5097596;27;45379;-74
2023/08/04 08:26:03;;;;;;;;;14.00;12.00;;;;;19.65;100.00;101454.28;5080508;27;45642;-74
2023/08/04 08:28:29;;;;;;;;;13.00;9.00;;;;;19.66;100.00;101454.19;5082315;27;45250;-75
2023/08/04 08:30:54;;;;;;;;;12.33;10.67;;;;;19.75;100.00;101472.28;5086581;27;45376;-74
2023/08/04 08:33:20;;;;;;;;;11.33;8.00;;;;;19.62;100.00;101446.47;5094923;27;45506;-74
2023/08/04 08:35:45;;;;;;;;;13.33;10.67;;;;;19.85;100.00;101463.53;5081083;27;45512;-74
2023/08/04 08:38:11;;;;;;;;;12.00;8.33;;;;;20.10;100.00;101461.56;5088537;27;45433;-74
2023/08/04 08:40:36;;;;;;;;;10.00;10.00;;;;;20.37;100.00;101460.44;5080592;27;45280;-73
2023/08/04 08:43:01;;;;;;;;;11.00;11.00;;;;;20.63;100.00;101470.00;5094830;27;45360;-74
2023/08/04 08:45:28;;;;;;;;;10.67;8.00;;;;;20.90;100.00;101477.72;5082112;27;45220;-74
2023/08/04 08:47:54;;;;;;;;;11.67;11.67;;;;;21.05;100.00;101469.28;5088485;27;45545;-74
2023/08/04 08:50:22;;;;;;;;;7.33;7.33;;;;;21.33;98.24;101476.03;5085838;27;45483;-73
2023/08/04 08:52:56;;;;;;;;;6.33;6.33;;;;;21.60;99.16;101472.88;5070068;27;45372;-74
2023/08/04 08:55:21;;;;;;;;;8.33;5.67;;;;;21.81;95.89;101473.81;5086086;27;45437;-74
2023/08/04 08:57:47;;;;;;;;;10.33;8.67;;;;;21.81;94.38;101473.81;5081381;27;45514;-74
2023/08/04 09:00:13;;;;;;;;;7.00;7.00;;;;;21.75;95.08;101485.97;5083779;27;45788;-74
2023/08/04 09:02:39;;;;;;;;;5.33;5.33;;;;;21.65;97.12;101473.38;5089933;27;45282;-74
2023/08/04 09:05:05;;;;;;;;;5.67;4.00;;;;;21.70;93.89;101488.16;5090322;27;45506;-74
2023/08/04 09:07:31;;;;;;;;;7.00;5.00;;;;;21.74;89.64;101480.69;5069755;27;45339;-74
2023/08/04 09:09:56;;;;;;;;;5.33;5.33;;;;;22.08;96.51;101486.84;5086111;27;45349;-74
2023/08/04 09:12:25;;;;;;;;;9.00;6.00;;;;;22.21;95.64;101492.91;5080844;27;45257;-74
2023/08/04 09:14:53;;;;;;;;;6.00;6.00;;;;;22.09;89.17;101492.09;5073635;27;45474;-74
2023/08/04 09:17:36;;;;;;;;;5.00;5.00;;;;;22.21;94.86;101496.47;5079892;27;47474;-74
2023/08/04 09:20:04;;;;;;;;;7.33;7.33;;;;;22.56;91.37;101498.81;5080085;27;45385;-75
2023/08/04 09:22:32;;;;;;;;;3.00;3.00;;;;;22.77;87.74;101501.53;5077161;28;45412;-74
2023/08/04 09:25:04;;;;;;;;;7.33;6.33;;;;;22.92;89.97;101493.94;5080222;27;45271;-74
2023/08/04 09:27:33;;;;;;;;;8.00;6.33;;;;;22.74;84.83;101483.75;5079113;27;45553;-74
2023/08/04 09:30:00;;;;;;;;;7.33;6.00;;;;;22.66;88.23;101494.38;5061647;28;45456;-74
2023/08/04 09:32:28;;;;;;;;;5.67;5.67;;;;;22.62;85.46;101492.03;5098672;27;45508;-74
2023/08/04 09:35:06;;;;;;;;;3.67;3.67;;;;;22.90;89.18;101487.84;5077866;28;45501;-75
2023/08/04 09:37:33;;;;;;;;;3.00;2.67;;;;;22.97;81.42;101483.59;5075620;27;45331;-74
2023/08/04 09:40:00;;;;;;;;;5.67;4.00;;;;;22.97;78.20;101492.53;5073721;27;45514;-74
2023/08/04 09:42:25;;;;;;;;;8.33;5.00;;;;;22.93;79.42;101482.16;5078883;27;45348;-75
2023/08/04 09:44:55;;;;;;;;;6.00;5.33;;;;;23.18;80.24;101481.69;5088080;27;46060;-75
2023/08/04 09:47:22;;;;;;;;;6.00;6.00;;;;;23.36;82.64;101483.59;5080247;27;45442;-74
2023/08/04 09:49:48;;;;;;;;;5.00;5.00;;;;;23.47;79.89;101468.28;5079901;27;45418;-74
2023/08/04 09:52:24;;;;;;;;;3.00;3.00;;;;;23.59;73.50;101451.81;5080021;27;45760;-75
2023/08/04 09:54:53;;;;;;;;;4.00;4.00;;;;;23.76;75.93;101475.44;5089054;27;45522;-74
2023/08/04 09:57:19;;;;;;;;;5.00;5.00;;;;;23.70;73.86;101480.56;5084967;27;45473;-74
2023/08/04 09:59:46;;;;;;;;;4.00;4.00;;;;;23.29;77.51;101470.78;5077512;28;45255;-75
2023/08/04 10:02:13;;;;;;;;;5.33;5.33;;;;;22.95;77.61;101478.34;5084901;27;45446;-74
2023/08/04 10:04:39;;;;;;;;;5.33;4.00;;;;;22.66;80.22;101477.34;5085480;27;45570;-74
2023/08/04 10:07:07;;;;;;;;;7.00;6.00;;;;;22.50;82.46;101477.78;5093599;27;46518;-75
2023/08/04 10:09:34;;;;;;;;;5.33;4.33;;;;;22.30;81.26;101484.88;5099027;27;45304;-74
2023/08/04 10:11:59;;;;;;;;;5.00;5.00;;;;;22.05;83.01;101476.31;5096205;27;45290;-75
2023/08/04 10:14:25;;;;;;;;;5.33;4.00;;;;;21.83;84.02;101470.00;5085414;27;45318;-75
2023/08/04 10:16:51;;;;;;;;;8.00;5.00;;;;;21.77;83.77;101488.50;5092090;27;46141;-75
2023/08/04 10:19:18;;;;;;;;;6.67;6.67;;;;;21.86;87.77;101482.34;5090350;27;45308;-75
2023/08/04 10:21:44;;;;;;;;;6.33;5.00;;;;;22.07;83.27;101474.34;5082535;27;45476;-75
2023/08/04 10:24:12;;;;;;;;;4.33;4.00;;;;;22.56;85.90;101487.19;5092733;27;45441;-75
2023/08/04 10:27:20;;;;;;;;;7.00;5.67;;;;;22.92;83.46;101481.31;5079386;27;47078;-75
2023/08/04 10:30:00;;;;;;;;;6.00;4.67;;;;;23.26;79.62;101474.63;5065713;27;45421;-75
2023/08/04 10:32:34;;;;;;;;;4.33;4.33;;;;;23.61;81.58;101466.06;5094579;27;45611;-75
2023/08/04 10:35:00;;;;;;;;;4.00;4.00;;;;;23.93;71.39;101467.63;5081073;27;45567;-75
2023/08/04 10:37:25;;;;;;;;;4.33;4.00;;;;;24.08;74.43;101450.00;5081130;27;48916;-74
2023/08/04 10:39:56;;;;;;;;;5.00;5.00;;;;;24.53;82.16;101458.34;5118042;27;45488;-74
2023/08/04 10:42:24;;;;;;;;;5.00;4.67;;;;;24.72;73.98;101461.00;5110727;27;45328;-74
2023/08/04 10:45:02;;;;;;;;;4.00;4.00;;;;;24.61;69.39;101467.44;5096493;27;45607;-74
2023/08/04 10:47:48;;;;;;;;;5.00;5.00;;;;;24.38;68.66;101470.66;5071543;27;46335;-74
2023/08/04 10:50:14;;;;;;;;;6.00;5.00;;;;;24.00;69.12;101475.03;5080664;27;45505;-74
2023/08/04 10:52:41;;;;;;;;;6.00;5.00;;;;;23.67;69.38;101476.31;5083284;27;45363;-74
2023/08/04 10:55:09;;;;;;;;;5.00;5.00;;;;;23.45;67.92;101483.78;5066989;28;46362;-74
2023/08/04 10:57:36;;;;;;;;;4.67;4.67;;;;;23.25;67.86;101490.94;5094005;27;45388;-74
2023/08/04 11:00:10;;;;;;;;;6.00;4.33;;;;;23.11;69.25;101488.63;5082084;27;45399;-74
2023/08/04 11:02:36;;;;;;;;;4.00;4.00;;;;;23.02;71.14;101486.75;5082076;27;45434;-74
2023/08/04 11:05:07;;;;;;;;;3.67;3.67;;;;;22.82;71.96;101480.41;5066080;28;45560;-74
2023/08/04 11:07:35;;;;;;;;;6.00;5.00;;;;;22.67;71.98;101503.31;5082265;27;45396;-75
2023/08/04 11:10:04;;;;;;;;;6.33;3.33;;;;;22.41;72.40;101524.41;5094476;27;45430;-74